createdAt,value
2023-06-09T00:00:08.781Z,100935.40
2023-06-09T00:02:37.032Z,100928.80
2023-06-09T00:05:05.920Z,100933.80
2023-06-09T00:07:37.334Z,100930.60
2023-06-09T00:10:06.210Z,100936.20
2023-06-09T00:12:34.058Z,100939.40
2023-06-09T00:15:01.990Z,100935.40
2023-06-09T00:17:31.252Z,100938.40
2023-06-09T00:20:04.718Z,100941.20
2023-06-09T00:22:32.937Z,100934.20
2023-06-09T00:26:08.388Z,100941.00
2023-06-09T00:29:53.142Z,100936.80
2023-06-09T00:32:29.973Z,100932.80
2023-06-09T00:34:57.851Z,100933.40
2023-06-09T00:37:25.881Z,100934.00
2023-06-09T00:39:53.858Z,100933.40
2023-06-09T00:42:21.635Z,100929.00
2023-06-09T00:44:49.637Z,100924.20
2023-06-09T00:47:18.564Z,100926.00
2023-06-09T00:49:47.091Z,100922.80
2023-06-09T00:52:16.822Z,100921.80
2023-06-09T00:54:45.160Z,100920.00
2023-06-09T00:57:13.802Z,100916.80
2023-06-09T00:59:41.739Z,100920.60
2023-06-09T01:02:10.124Z,100925.80
2023-06-09T01:04:38.090Z,100925.80
2023-06-09T01:07:22.159Z,100917.60
2023-06-09T01:10:10.584Z,100920.60
2023-06-09T01:13:02.316Z,100914.00
2023-06-09T01:15:38.774Z,100908.00
2023-06-09T01:18:14.153Z,100909.60
2023-06-09T01:20:46.013Z,100910.40
2023-06-09T01:23:40.602Z,100912.80
2023-06-09T01:26:09.989Z,100910.80
2023-06-09T01:28:39.396Z,100910.60
2023-06-09T01:31:09.620Z,100907.00
2023-06-09T01:33:38.164Z,100904.80
2023-06-09T01:36:07.127Z,100904.60
2023-06-09T01:38:35.216Z,100902.80
2023-06-09T01:41:05.096Z,100905.40
2023-06-09T01:43:33.035Z,100904.60
2023-06-09T01:46:01.231Z,100904.60
2023-06-09T01:49:07.611Z,100901.80
2023-06-09T01:51:42.643Z,100903.20
2023-06-09T01:54:22.269Z,100900.80
2023-06-09T01:57:06.735Z,100905.20
2023-06-09T01:59:48.912Z,100902.80
2023-06-09T02:02:20.467Z,100907.00
2023-06-09T02:04:53.570Z,100912.00
2023-06-09T02:07:23.081Z,100909.20
2023-06-09T02:09:51.846Z,100908.20
2023-06-09T02:12:19.835Z,100902.20
2023-06-09T02:14:47.728Z,100904.20
2023-06-09T02:17:16.876Z,100900.20
2023-06-09T02:19:46.624Z,100902.00
2023-06-09T02:22:14.519Z,100902.20
2023-06-09T02:24:42.290Z,100904.80
2023-06-09T02:27:10.170Z,100904.00
2023-06-09T02:29:37.996Z,100908.60
2023-06-09T02:32:06.422Z,100907.80
2023-06-09T02:34:34.272Z,100912.20
2023-06-09T02:37:03.516Z,100910.80
2023-06-09T02:39:31.358Z,100907.80
2023-06-09T02:41:59.772Z,100904.20
2023-06-09T02:44:27.625Z,100904.60
2023-06-09T02:46:56.015Z,100913.00
2023-06-09T02:49:23.850Z,100912.60
2023-06-09T02:51:51.684Z,100912.60
2023-06-09T02:54:19.583Z,100910.80
2023-06-09T02:56:47.588Z,100913.60
2023-06-09T02:59:15.664Z,100912.60
2023-06-09T03:01:44.035Z,100916.40
2023-06-09T03:04:13.869Z,100925.40
2023-06-09T03:06:44.634Z,100924.80
2023-06-09T03:09:14.335Z,100924.00
2023-06-09T03:11:42.469Z,100924.80
2023-06-09T03:14:10.306Z,100925.40
2023-06-09T03:16:38.233Z,100927.60
2023-06-09T03:19:06.789Z,100924.20
2023-06-09T03:21:36.766Z,100922.80
2023-06-09T03:24:07.492Z,100923.80
2023-06-09T03:26:35.486Z,100924.80
2023-06-09T03:29:03.414Z,100922.00
2023-06-09T03:31:31.433Z,100924.80
2023-06-09T03:33:59.430Z,100926.00
2023-06-09T03:36:28.358Z,100930.20
2023-06-09T03:38:56.316Z,100933.60
2023-06-09T03:41:24.069Z,100932.80
2023-06-09T03:43:52.158Z,100933.20
2023-06-09T03:46:20.180Z,100931.40
2023-06-09T03:48:48.495Z,100932.20
2023-06-09T03:51:17.530Z,100927.40
2023-06-09T03:53:45.735Z,100928.20
2023-06-09T03:56:15.100Z,100926.20
2023-06-09T03:58:42.918Z,100929.80
2023-06-09T04:01:12.246Z,100930.80
2023-06-09T04:03:40.675Z,100931.80
2023-06-09T04:06:08.609Z,100927.60
2023-06-09T04:08:36.456Z,100933.40
2023-06-09T04:11:04.294Z,100933.40
2023-06-09T04:13:32.185Z,100929.00
2023-06-09T04:16:00.066Z,100925.80
2023-06-09T04:18:27.946Z,100933.80
2023-06-09T04:20:55.790Z,100931.80
2023-06-09T04:23:23.714Z,100927.60
2023-06-09T04:25:54.683Z,100921.80
2023-06-09T04:28:22.680Z,100924.60
2023-06-09T04:30:51.428Z,100920.60
2023-06-09T04:33:19.683Z,100927.20
2023-06-09T04:35:48.103Z,100925.40
2023-06-09T04:38:18.333Z,100924.80
2023-06-09T04:40:47.026Z,100925.20
2023-06-09T04:43:15.261Z,100924.00
2023-06-09T04:45:44.664Z,100926.40
2023-06-09T04:48:14.025Z,100922.00
2023-06-09T04:50:46.074Z,100923.80
2023-06-09T04:53:14.158Z,100917.80
2023-06-09T04:55:42.804Z,100920.00
2023-06-09T04:58:10.623Z,100918.00
2023-06-09T05:00:38.599Z,100919.80
2023-06-09T05:03:06.707Z,100916.80
2023-06-09T05:05:34.616Z,100921.40
2023-06-09T05:08:02.542Z,100921.40
2023-06-09T05:10:30.558Z,100919.20
2023-06-09T05:12:58.436Z,100922.20
2023-06-09T05:15:27.732Z,100923.40
2023-06-09T05:17:55.950Z,100925.80
2023-06-09T05:20:23.885Z,100925.60
2023-06-09T05:22:51.730Z,100929.20
2023-06-09T05:25:20.427Z,100935.00
2023-06-09T05:27:48.347Z,100937.20
2023-06-09T05:30:16.344Z,100939.00
2023-06-09T05:32:44.388Z,100938.00
2023-06-09T05:35:15.472Z,100935.40
2023-06-09T05:37:53.087Z,100940.00
2023-06-09T05:40:21.495Z,100946.20
2023-06-09T05:42:51.109Z,100946.20
2023-06-09T05:45:19.044Z,100946.40
2023-06-09T05:47:47.309Z,100949.60
2023-06-09T05:50:15.462Z,100949.60
2023-06-09T05:52:43.621Z,100953.60
2023-06-09T05:55:12.108Z,100957.60
2023-06-09T05:57:41.645Z,100965.20
2023-06-09T06:00:11.063Z,100966.00
2023-06-09T06:02:40.020Z,100963.20
2023-06-09T06:05:09.312Z,100966.40
2023-06-09T06:07:38.460Z,100973.00
2023-06-09T06:10:08.167Z,100973.00
2023-06-09T06:12:36.527Z,100972.20
2023-06-09T06:15:05.057Z,100975.00
2023-06-09T06:17:32.953Z,100974.40
2023-06-09T06:20:00.966Z,100970.80
2023-06-09T06:22:29.041Z,100968.60
2023-06-09T06:24:57.655Z,100971.00
2023-06-09T06:27:25.987Z,100973.00
2023-06-09T06:29:54.067Z,100974.00
2023-06-09T06:32:22.119Z,100973.60
2023-06-09T06:34:50.320Z,100974.60
2023-06-09T06:37:19.410Z,100978.80
2023-06-09T06:39:47.245Z,100973.60
2023-06-09T06:42:15.121Z,100975.20
2023-06-09T06:44:43.104Z,100974.80
2023-06-09T06:47:11.530Z,100979.80
2023-06-09T06:49:39.623Z,100980.40
2023-06-09T06:52:07.441Z,100980.80
2023-06-09T06:54:35.357Z,100982.80
2023-06-09T06:57:03.855Z,100984.60
2023-06-09T06:59:31.605Z,100989.80
2023-06-09T07:01:59.421Z,100991.40
2023-06-09T07:04:27.460Z,100996.60
2023-06-09T07:06:55.648Z,101004.20
2023-06-09T07:09:24.915Z,101000.60
2023-06-09T07:11:58.129Z,100996.80
2023-06-09T07:14:25.915Z,101007.20
2023-06-09T07:16:53.924Z,101006.00
2023-06-09T07:19:21.727Z,101000.80
2023-06-09T07:21:49.681Z,101005.40
2023-06-09T07:24:17.679Z,101004.80
2023-06-09T07:26:45.664Z,101011.00
2023-06-09T07:29:13.915Z,101008.60
2023-06-09T07:31:41.807Z,101008.00
2023-06-09T07:34:09.904Z,101003.00
2023-06-09T07:36:38.736Z,101010.00
2023-06-09T07:39:07.055Z,101009.40
2023-06-09T07:41:35.120Z,101007.00
2023-06-09T07:44:04.046Z,101008.80
2023-06-09T07:46:33.322Z,101008.60
2023-06-09T07:49:01.959Z,101008.40
2023-06-09T07:51:30.381Z,101007.80
2023-06-09T07:53:58.301Z,101011.00
2023-06-09T07:56:26.179Z,101012.20
2023-06-09T07:58:54.231Z,101020.00
2023-06-09T08:01:22.241Z,101020.20
2023-06-09T08:03:50.376Z,101019.60
2023-06-09T08:06:18.489Z,101019.00
2023-06-09T08:08:46.458Z,101025.20
2023-06-09T08:11:14.430Z,101021.20
2023-06-09T08:13:42.364Z,101027.20
2023-06-09T08:16:10.375Z,101026.20
2023-06-09T08:18:38.398Z,101028.60
2023-06-09T08:21:06.732Z,101031.80
2023-06-09T08:23:35.274Z,101028.00
2023-06-09T08:26:03.698Z,101032.00
2023-06-09T08:28:32.132Z,101030.00
2023-06-09T08:31:00.902Z,101034.80
2023-06-09T08:33:30.977Z,101029.60
2023-06-09T08:35:59.987Z,101029.20
2023-06-09T08:38:29.289Z,101037.60
2023-06-09T08:41:12.622Z,101039.60
2023-06-09T08:43:40.878Z,101044.80
2023-06-09T08:46:13.919Z,101037.00
2023-06-09T08:48:52.706Z,101039.00
2023-06-09T08:51:23.541Z,101036.80
2023-06-09T08:53:56.551Z,101039.00
2023-06-09T08:56:24.913Z,101037.00
2023-06-09T08:58:53.863Z,101034.60
2023-06-09T09:01:22.564Z,101032.40
2023-06-09T09:03:51.819Z,101040.60
2023-06-09T09:06:21.560Z,101042.60
2023-06-09T09:08:51.719Z,101043.60
2023-06-09T09:11:20.041Z,101048.00
2023-06-09T09:13:51.339Z,101046.60
2023-06-09T09:16:20.377Z,101049.80
2023-06-09T09:18:49.505Z,101053.00
2023-06-09T09:21:25.664Z,101053.40
2023-06-09T09:24:05.750Z,101050.00
2023-06-09T09:26:35.348Z,101048.20
2023-06-09T09:29:08.142Z,101043.40
2023-06-09T09:31:40.970Z,101045.20
2023-06-09T09:34:14.677Z,101045.00
2023-06-09T09:36:49.288Z,101040.20
2023-06-09T09:39:17.945Z,101049.00
2023-06-09T09:42:11.726Z,101051.40
2023-06-09T09:44:44.838Z,101049.80
2023-06-09T09:47:14.691Z,101048.00
2023-06-09T09:50:00.172Z,101044.20
2023-06-09T09:52:35.607Z,101051.20
2023-06-09T09:55:09.959Z,101057.00
2023-06-09T09:57:41.098Z,101054.80
2023-06-09T10:00:13.998Z,101055.40
2023-06-09T10:02:47.215Z,101051.00
2023-06-09T10:05:17.549Z,101058.20
2023-06-09T10:07:53.290Z,101048.60
2023-06-09T10:10:21.896Z,101049.00
2023-06-09T10:12:53.091Z,101054.40
2023-06-09T10:15:22.347Z,101050.20
2023-06-09T10:17:56.944Z,101059.20
2023-06-09T10:20:25.399Z,101057.80
2023-06-09T10:22:54.567Z,101056.20
2023-06-09T10:25:25.512Z,101058.00
2023-06-09T10:27:53.874Z,101055.60
2023-06-09T10:30:22.611Z,101051.60
2023-06-09T10:33:15.926Z,101049.40
2023-06-09T10:35:48.837Z,101053.20
2023-06-09T10:38:43.384Z,101057.00
2023-06-09T10:41:35.562Z,101055.60
2023-06-09T10:44:38.078Z,101053.80
2023-06-09T10:47:06.496Z,101057.60
2023-06-09T10:49:39.352Z,101064.80
2023-06-09T10:52:29.556Z,101057.20
2023-06-09T10:55:16.389Z,101063.40
2023-06-09T10:57:44.620Z,101058.60
2023-06-09T11:00:13.531Z,101053.60
2023-06-09T11:02:50.352Z,101054.20
2023-06-09T11:05:21.869Z,101061.20
2023-06-09T11:08:04.828Z,101060.80
2023-06-09T11:10:33.380Z,101061.60
2023-06-09T11:13:03.747Z,101061.40
2023-06-09T11:16:02.466Z,101060.20
2023-06-09T11:18:32.837Z,101059.80
2023-06-09T11:21:21.437Z,101066.60
2023-06-09T11:24:05.436Z,101064.60
2023-06-09T11:26:35.292Z,101058.80
2023-06-09T11:29:05.400Z,101062.80
2023-06-09T11:31:49.439Z,101057.80
2023-06-09T11:34:51.410Z,101052.80
2023-06-09T11:37:21.915Z,101052.40
2023-06-09T11:39:51.483Z,101057.00
2023-06-09T11:42:20.268Z,101064.20
2023-06-09T11:44:49.123Z,101058.60
2023-06-09T11:47:31.259Z,101060.80
2023-06-09T11:50:20.290Z,101051.60
2023-06-09T11:52:48.873Z,101051.40
2023-06-09T11:55:16.846Z,101057.40
2023-06-09T11:57:44.826Z,101058.60
2023-06-09T12:00:20.944Z,101058.20
2023-06-09T12:02:51.125Z,101055.80
2023-06-09T12:05:20.516Z,101049.40
2023-06-09T12:07:50.559Z,101046.80
2023-06-09T12:10:23.393Z,101059.60
2023-06-09T12:12:54.505Z,101062.20
2023-06-09T12:15:24.908Z,101060.80
2023-06-09T12:17:56.005Z,101051.80
2023-06-09T12:20:30.080Z,101052.00
2023-06-09T12:23:04.214Z,101043.20
2023-06-09T12:25:36.446Z,101048.00
2023-06-09T12:28:29.006Z,101045.80
2023-06-09T12:31:19.879Z,101046.60
2023-06-09T12:33:50.372Z,101047.40
2023-06-09T12:36:20.454Z,101053.40
2023-06-09T12:38:50.180Z,101054.20
2023-06-09T12:41:19.408Z,101051.20
2023-06-09T12:43:52.941Z,101053.20
2023-06-09T12:46:41.767Z,101047.20
2023-06-09T12:49:11.865Z,101044.60
2023-06-09T12:51:43.634Z,101050.00
2023-06-09T12:54:14.391Z,101054.40
2023-06-09T12:56:42.292Z,101046.80
2023-06-09T12:59:10.871Z,101056.00
2023-06-09T13:01:39.841Z,101054.40
2023-06-09T13:04:08.339Z,101049.00
2023-06-09T13:06:37.683Z,101051.60
2023-06-09T13:09:05.619Z,101049.60
2023-06-09T13:11:33.569Z,101047.40
2023-06-09T13:14:02.824Z,101049.60
2023-06-09T13:16:32.715Z,101049.80
2023-06-09T13:19:01.112Z,101039.80
2023-06-09T13:21:43.705Z,101041.40
2023-06-09T13:24:13.672Z,101048.00
2023-06-09T13:26:42.299Z,101041.20
2023-06-09T13:29:10.554Z,101044.40
2023-06-09T13:31:38.668Z,101040.40
2023-06-09T13:34:06.744Z,101039.20
2023-06-09T13:36:35.339Z,101037.60
2023-06-09T13:39:04.174Z,101033.40
2023-06-09T13:41:32.308Z,101036.00
2023-06-09T13:44:00.695Z,101033.80
2023-06-09T13:46:28.696Z,101035.20
2023-06-09T13:48:56.602Z,101034.80
2023-06-09T13:51:24.664Z,101042.00
2023-06-09T13:53:52.469Z,101038.60
2023-06-09T13:56:22.465Z,101043.00
2023-06-09T13:58:50.657Z,101042.00
2023-06-09T14:01:18.854Z,101055.80
2023-06-09T14:03:47.337Z,101053.40
2023-06-09T14:06:15.553Z,101051.40
2023-06-09T14:08:43.512Z,101053.60
2023-06-09T14:11:11.436Z,101058.00
2023-06-09T14:13:39.452Z,101058.80
2023-06-09T14:16:07.364Z,101065.20
2023-06-09T14:18:35.837Z,101060.60
2023-06-09T14:21:04.977Z,101065.60
2023-06-09T14:23:33.171Z,101072.80
2023-06-09T14:26:01.198Z,101072.20
2023-06-09T14:28:29.035Z,101077.40
2023-06-09T14:30:57.380Z,101086.80
2023-06-09T14:33:25.295Z,101083.20
2023-06-09T14:35:53.221Z,101079.00
2023-06-09T14:38:21.320Z,101084.00
2023-06-09T14:40:49.247Z,101082.40
2023-06-09T14:43:17.287Z,101081.40
2023-06-09T14:45:45.198Z,101083.00
2023-06-09T14:48:13.244Z,101077.60
2023-06-09T14:50:45.725Z,101084.40
2023-06-09T14:53:15.284Z,101098.00
2023-06-09T14:55:48.838Z,101080.60
2023-06-09T14:58:20.010Z,101089.40
2023-06-09T15:00:48.370Z,101085.60
2023-06-09T15:03:18.287Z,101080.20
2023-06-09T15:05:47.497Z,101070.20
2023-06-09T15:08:15.780Z,101075.20
2023-06-09T15:10:46.761Z,101064.40
2023-06-09T15:13:17.477Z,101072.60
2023-06-09T15:15:49.100Z,101089.60
2023-06-09T15:18:17.111Z,101076.00
2023-06-09T15:20:45.317Z,101078.60
2023-06-09T15:23:14.266Z,101087.40
2023-06-09T15:25:45.582Z,101082.40
2023-06-09T15:28:16.659Z,101073.80
2023-06-09T15:30:48.954Z,101084.80
2023-06-09T15:33:22.665Z,101087.20
2023-06-09T15:35:54.291Z,101085.80
2023-06-09T15:38:27.971Z,101080.20
2023-06-09T15:40:57.880Z,101083.20
2023-06-09T15:43:38.202Z,101080.40
2023-06-09T15:46:06.386Z,101082.00
2023-06-09T15:48:34.743Z,101081.20
2023-06-09T15:51:02.773Z,101084.20
2023-06-09T15:53:30.723Z,101089.20
2023-06-09T15:55:58.636Z,101087.20
2023-06-09T15:58:26.497Z,101087.80
2023-06-09T16:00:54.346Z,101094.80
2023-06-09T16:03:22.447Z,101097.00
2023-06-09T16:05:50.569Z,101099.00
2023-06-09T16:08:20.217Z,101102.60
2023-06-09T16:10:52.471Z,101097.60
2023-06-09T16:13:22.378Z,101089.00
2023-06-09T16:15:52.008Z,101096.00
2023-06-09T16:18:22.995Z,101093.60
2023-06-09T16:20:51.391Z,101100.20
2023-06-09T16:23:19.347Z,101095.60
2023-06-09T16:25:47.229Z,101097.20
2023-06-09T16:28:16.309Z,101102.00
2023-06-09T16:30:44.922Z,101105.20
2023-06-09T16:33:13.724Z,101097.80
2023-06-09T16:35:41.670Z,101106.60
2023-06-09T16:38:09.598Z,101104.20
2023-06-09T16:40:40.234Z,101108.20
2023-06-09T16:43:08.286Z,101109.60
2023-06-09T16:45:36.197Z,101105.80
2023-06-09T16:48:04.620Z,101105.40
2023-06-09T16:50:32.624Z,101102.80
2023-06-09T16:53:01.218Z,101105.80
2023-06-09T16:55:29.174Z,101104.60
2023-06-09T16:57:57.192Z,101112.20
2023-06-09T17:00:25.067Z,101109.80
2023-06-09T17:02:55.775Z,101112.00
2023-06-09T17:05:24.774Z,101114.80
2023-06-09T17:07:52.945Z,101110.00
2023-06-09T17:10:21.255Z,101110.40
2023-06-09T17:12:49.738Z,101116.20
2023-06-09T17:15:17.902Z,101118.40
2023-06-09T17:17:45.846Z,101118.60
2023-06-09T17:20:14.068Z,101110.00
2023-06-09T17:22:43.205Z,101115.00
2023-06-09T17:25:11.363Z,101118.80
2023-06-09T17:27:39.754Z,101114.20
2023-06-09T17:30:14.359Z,101120.00
2023-06-09T17:32:45.359Z,101109.80
2023-06-09T17:35:14.362Z,101117.20
2023-06-09T17:37:43.681Z,101120.40
2023-06-09T17:40:13.275Z,101113.40
2023-06-09T17:42:42.263Z,101117.20
2023-06-09T17:45:12.687Z,101120.20
2023-06-09T17:47:41.024Z,101125.20
2023-06-09T17:50:10.122Z,101128.20
2023-06-09T17:52:38.193Z,101112.60
2023-06-09T17:55:07.208Z,101130.20
2023-06-09T17:57:35.664Z,101127.80
2023-06-09T18:00:06.749Z,101132.40
2023-06-09T18:02:34.914Z,101127.40
2023-06-09T18:05:04.521Z,101133.40
2023-06-09T18:07:32.875Z,101134.00
2023-06-09T18:10:03.087Z,101136.60
2023-06-09T18:12:31.156Z,101134.60
2023-06-09T18:14:59.438Z,101138.20
2023-06-09T18:17:27.356Z,101135.60
2023-06-09T18:19:56.325Z,101138.20
2023-06-09T18:22:25.933Z,101132.40
2023-06-09T18:24:53.891Z,101135.60
2023-06-09T18:27:21.825Z,101136.00
2023-06-09T18:29:49.691Z,101131.20
2023-06-09T18:32:18.069Z,101132.80
2023-06-09T18:34:49.873Z,101134.00
2023-06-09T18:37:18.379Z,101131.80
2023-06-09T18:39:46.439Z,101139.20
2023-06-09T18:42:15.537Z,101137.80
2023-06-09T18:44:44.049Z,101142.40
2023-06-09T18:47:13.011Z,101148.00
2023-06-09T18:49:41.141Z,101153.60
2023-06-09T18:52:09.558Z,101150.20
2023-06-09T18:54:37.610Z,101145.80
2023-06-09T18:57:08.155Z,101154.00
2023-06-09T18:59:36.182Z,101145.60
2023-06-09T19:02:04.519Z,101154.60
2023-06-09T19:04:32.396Z,101154.40
2023-06-09T19:07:00.437Z,101151.80
2023-06-09T19:09:28.378Z,101151.00
2023-06-09T19:11:56.498Z,101156.80
2023-06-09T19:14:24.526Z,101161.00
2023-06-09T19:16:52.464Z,101155.80
2023-06-09T19:19:20.750Z,101160.60
2023-06-09T19:21:50.034Z,101158.40
2023-06-09T19:24:18.150Z,101166.40
2023-06-09T19:26:46.608Z,101171.20
2023-06-09T19:29:14.526Z,101169.20
2023-06-09T19:31:42.730Z,101170.40
2023-06-09T19:34:11.257Z,101167.20
2023-06-09T19:36:39.241Z,101168.60
2023-06-09T19:39:07.802Z,101169.00
2023-06-09T19:41:35.816Z,101169.80
2023-06-09T19:44:03.916Z,101177.80
2023-06-09T19:46:32.084Z,101172.00
2023-06-09T19:49:03.373Z,101175.20
2023-06-09T19:51:31.287Z,101176.20
2023-06-09T19:54:00.406Z,101175.20
2023-06-09T19:56:29.541Z,101181.80
2023-06-09T19:58:57.406Z,101175.60
2023-06-09T20:01:25.282Z,101183.20
2023-06-09T20:03:53.228Z,101185.60
2023-06-09T20:06:21.409Z,101183.40
2023-06-09T20:08:49.424Z,101188.00
2023-06-09T20:11:17.766Z,101191.20
2023-06-09T20:13:47.997Z,101186.00
2023-06-09T20:16:16.376Z,101183.60
2023-06-09T20:18:44.267Z,101188.00
2023-06-09T20:21:12.202Z,101184.40
2023-06-09T20:23:43.736Z,101184.20
2023-06-09T20:26:12.978Z,101184.00
2023-06-09T20:28:43.366Z,101183.20
2023-06-09T20:31:11.865Z,101181.00
2023-06-09T20:33:49.448Z,101179.40
2023-06-09T20:36:17.778Z,101178.20
2023-06-09T20:38:46.074Z,101178.00
2023-06-09T20:41:14.013Z,101179.80
2023-06-09T20:43:41.920Z,101181.80
2023-06-09T20:46:11.107Z,101183.60
2023-06-09T20:48:40.229Z,101177.80
2023-06-09T20:51:08.536Z,101174.60
2023-06-09T20:53:38.674Z,101176.40
2023-06-09T20:56:06.550Z,101182.40
2023-06-09T20:58:34.572Z,101183.00
2023-06-09T21:01:02.480Z,101181.60
2023-06-09T21:03:38.963Z,101180.40
2023-06-09T21:06:07.540Z,101181.80
2023-06-09T21:08:35.720Z,101186.80
2023-06-09T21:11:03.752Z,101177.80
2023-06-09T21:13:32.745Z,101186.00
2023-06-09T21:16:00.785Z,101189.20
2023-06-09T21:18:28.713Z,101193.20
2023-06-09T21:20:56.684Z,101194.40
2023-06-09T21:23:25.333Z,101199.40
2023-06-09T21:25:53.338Z,101198.40
2023-06-09T21:28:21.211Z,101210.40
2023-06-09T21:30:49.168Z,101205.40
2023-06-09T21:33:17.088Z,101212.60
2023-06-09T21:35:45.211Z,101220.60
2023-06-09T21:38:13.104Z,101220.00
2023-06-09T21:40:41.048Z,101216.80
2023-06-09T21:43:09.441Z,101220.20
2023-06-09T21:45:37.494Z,101220.20
2023-06-09T21:48:05.757Z,101215.40
2023-06-09T21:50:33.804Z,101216.60
2023-06-09T21:53:02.168Z,101214.40
2023-06-09T21:55:30.071Z,101217.60
2023-06-09T21:58:01.925Z,101219.20
2023-06-09T22:00:31.919Z,101226.40
2023-06-09T22:03:01.684Z,101219.60
2023-06-09T22:05:30.003Z,101221.20
2023-06-09T22:07:57.868Z,101225.80
2023-06-09T22:10:26.300Z,101225.80
2023-06-09T22:12:54.285Z,101229.20
2023-06-09T22:15:22.347Z,101228.20
2023-06-09T22:17:50.264Z,101226.60
2023-06-09T22:20:18.129Z,101229.00
2023-06-09T22:22:45.980Z,101230.80
2023-06-09T22:25:13.863Z,101232.40
2023-06-09T22:27:41.925Z,101232.60
2023-06-09T22:30:10.430Z,101238.80
2023-06-09T22:32:38.290Z,101241.20
2023-06-09T22:35:06.665Z,101243.20
2023-06-09T22:37:35.109Z,101243.40
2023-06-09T22:40:04.507Z,101243.00
2023-06-09T22:42:32.595Z,101241.60
2023-06-09T22:45:00.850Z,101248.00
2023-06-09T22:47:28.814Z,101245.60
2023-06-09T22:50:11.164Z,101246.00
2023-06-09T22:52:46.353Z,101244.60
2023-06-09T22:55:16.559Z,101250.20
2023-06-09T22:57:49.817Z,101244.60
2023-06-09T23:00:23.608Z,101248.00
2023-06-09T23:02:52.981Z,101246.20
2023-06-09T23:05:32.607Z,101245.00
2023-06-09T23:08:01.047Z,101247.60
2023-06-09T23:10:28.925Z,101246.00
2023-06-09T23:12:56.900Z,101242.20
2023-06-09T23:15:24.996Z,101243.40
2023-06-09T23:17:53.810Z,101243.40
2023-06-09T23:20:23.237Z,101239.60
2023-06-09T23:22:54.080Z,101238.00
2023-06-09T23:25:23.453Z,101235.20
2023-06-09T23:27:51.965Z,101239.60
2023-06-09T23:30:19.913Z,101229.20
2023-06-09T23:32:47.969Z,101234.40
2023-06-09T23:35:18.235Z,101237.40
2023-06-09T23:37:47.072Z,101234.60
2023-06-09T23:40:15.460Z,101237.60
2023-06-09T23:42:43.320Z,101239.80
2023-06-09T23:45:12.092Z,101242.00
2023-06-09T23:47:40.238Z,101242.80
2023-06-09T23:50:08.633Z,101242.00
2023-06-09T23:52:37.232Z,101241.20
2023-06-09T23:55:06.070Z,101246.80
2023-06-09T23:57:34.868Z,101253.60
